Batumi International Airport
UGSB : now visible

Airfield :











YOU CAN JOIN US ON...

 
LOGIN :

Register | Disclaimer

   EN    FR    IT 

 









Legend :    VFR   Marginal VFR   IFR   Intensive IFR   Very Intensive IFR
Visi :
Ceiling :
>= 8 km
>= 3000ft
5 to 8 km
1000 to 3000 ft
1500m to 5 km
500 to 1000 ft
800 to 1500m
200 to 500 ft
< 800m
< 200 ft
Symbols :   Thunderstorms  Fog  Heavy snow  Heavy precipitations  Wind > 20 kt






- Airport Elevation : 105 ft
- IATA code : BUS


UGSB - Batumi International

CURRENT METAR :
  • 221630Z 12006KT CAVOK 15/14 Q1024 NOSIG

EXPIRED METARs :
  • 221600Z 11006KT CAVOK 16/15 Q1024 NOSIG
  • 221530Z 12005KT 9999 FEW027 16/15 Q1024 NOSIG
  • 221500Z 13001KT 9999 SCT026 17/14 Q1024 NOSIG
  • 221430Z 00000KT 9999 FEW026 19/14 Q1024 NOSIG
  • 221400Z 00000KT 9999 FEW027 20/14 Q1023 NOSIG

TAF TAF UGSB
Valid from the 22 at 12:00 until the 23 at 12:00 UTC


221100Z 2212/2312 VRB02KT CAVOK TX22/2311Z TN15/2303Z
TEMPO 2212/2218 SCT020
BECMG 2217/2219 13012KT
BECMG 2308/2309 36007KT
UGGG FIR / Asia



MET'MAP, your aeronautical weather chart ! - Copyright ORBIFLY December 2007 - Disclaimer

ORBIFLY MET'MAP TEAM :

Programming & Development : Alexandra Zaïnal
Concept & original design : Baudouin d'Aumeries
Assistance for programming : Marc-Olivier Méhu
Technical & hardware support : Manuel Goepfert

Contact : metmap@orbifly.com




SOURCES & CREDITS :

   NOAA       Earth
Advisory